createdAt,value
2018-02-20T00:02:21.444Z,44.08
2018-02-20T00:04:47.387Z,46.13
2018-02-20T00:07:13.383Z,44.33
2018-02-20T00:09:40.056Z,46.22
2018-02-20T00:12:06.009Z,43.67
2018-02-20T00:14:31.939Z,37.72
2018-02-20T00:16:58.089Z,47.43
2018-02-20T00:19:24.771Z,42.40
2018-02-20T00:21:50.696Z,47.17
2018-02-20T00:24:16.669Z,41.87
2018-02-20T00:26:42.632Z,49.22
2018-02-20T00:29:08.601Z,43.65
2018-02-20T00:31:34.684Z,46.83
2018-02-20T00:34:00.748Z,39.47
2018-02-20T00:36:26.705Z,46.33
2018-02-20T00:38:52.695Z,44.13
2018-02-20T00:41:18.621Z,44.67
2018-02-20T00:43:45.357Z,43.40
2018-02-20T00:46:12.049Z,41.90
2018-02-20T00:48:38.144Z,42.75
2018-02-20T00:51:04.144Z,48.13
2018-02-20T00:53:30.120Z,44.55
2018-02-20T00:55:56.102Z,45.00
2018-02-20T00:58:22.783Z,46.40
2018-02-20T01:00:48.774Z,42.80
2018-02-20T01:03:14.715Z,43.10
2018-02-20T01:05:40.788Z,44.30
2018-02-20T01:08:06.724Z,42.47
2018-02-20T01:10:33.436Z,47.53
2018-02-20T01:12:59.383Z,47.33
2018-02-20T01:15:26.085Z,43.87
2018-02-20T01:17:52.050Z,47.13
2018-02-20T01:20:18.736Z,48.13
2018-02-20T01:22:44.799Z,49.80
2018-02-20T01:25:10.741Z,49.70
2018-02-20T01:27:36.723Z,43.70
2018-02-20T01:30:02.664Z,44.85
2018-02-20T01:32:28.761Z,43.47
2018-02-20T01:34:54.717Z,46.67
2018-02-20T01:37:20.687Z,45.92
2018-02-20T01:39:46.743Z,49.42
2018-02-20T01:42:12.668Z,47.40
2018-02-20T01:44:38.603Z,46.73
2018-02-20T01:47:04.523Z,44.10
2018-02-20T01:49:30.491Z,47.50
2018-02-20T01:51:56.441Z,50.60
2018-02-20T01:54:22.378Z,44.63
2018-02-20T01:56:48.448Z,46.25
2018-02-20T01:59:14.399Z,45.67
2018-02-20T02:01:40.360Z,49.78
2018-02-20T02:04:07.051Z,45.45
2018-02-20T02:06:33.024Z,44.55
2018-02-20T02:08:59.696Z,49.80
2018-02-20T02:11:25.624Z,48.15
2018-02-20T02:13:51.697Z,47.37
2018-02-20T02:16:17.644Z,49.22
2018-02-20T02:18:43.611Z,47.33
2018-02-20T02:21:09.548Z,46.17
2018-02-20T02:23:35.513Z,49.95
2018-02-20T02:26:01.476Z,43.50
2018-02-20T02:28:27.416Z,57.10
2018-02-20T02:30:53.492Z,49.08
2018-02-20T02:33:19.564Z,49.80
2018-02-20T02:35:45.524Z,44.78
2018-02-20T02:38:11.461Z,49.95
2018-02-20T02:40:37.424Z,52.03
2018-02-20T02:43:03.374Z,46.50
2018-02-20T02:45:30.208Z,51.25
2018-02-20T02:47:56.168Z,45.63
2018-02-20T02:50:22.120Z,48.63
2018-02-20T02:52:48.108Z,44.83
2018-02-20T02:55:14.033Z,63.97
2018-02-20T02:57:40.035Z,49.60
2018-02-20T03:00:06.728Z,51.20
2018-02-20T03:02:32.804Z,52.30
2018-02-20T03:04:58.748Z,52.25
2018-02-20T03:07:24.707Z,57.45
2018-02-20T03:09:50.681Z,49.28
2018-02-20T03:12:16.659Z,52.50
2018-02-20T03:14:42.630Z,51.37
2018-02-20T03:17:08.576Z,51.45
2018-02-20T03:19:34.655Z,50.67
2018-02-20T03:22:00.581Z,53.65
2018-02-20T03:24:26.531Z,43.73
2018-02-20T03:26:52.477Z,50.03
2018-02-20T03:29:18.403Z,51.45
2018-02-20T03:31:44.527Z,49.80
2018-02-20T03:34:10.469Z,48.13
2018-02-20T03:36:36.561Z,50.67
2018-02-20T03:39:02.496Z,51.63
2018-02-20T03:41:28.479Z,51.88
2018-02-20T03:43:54.415Z,49.85
2018-02-20T03:46:20.363Z,52.33
2018-02-20T03:48:46.344Z,49.78
2018-02-20T03:51:12.275Z,47.60
2018-02-20T03:53:38.351Z,51.00
2018-02-20T03:56:04.284Z,45.88
2018-02-20T03:58:30.991Z,50.38
2018-02-20T04:00:56.942Z,56.83
2018-02-20T04:03:22.924Z,50.55
2018-02-20T04:05:48.879Z,52.20
2018-02-20T04:08:15.698Z,50.20
2018-02-20T04:10:41.636Z,48.53
2018-02-20T04:13:07.623Z,45.97
2018-02-20T04:15:33.571Z,45.78
2018-02-20T04:17:59.524Z,49.63
2018-02-20T04:20:26.263Z,52.67
2018-02-20T04:22:52.973Z,53.30
2018-02-20T04:25:18.981Z,45.03
2018-02-20T04:27:44.907Z,51.20
2018-02-20T04:30:10.880Z,47.43
2018-02-20T04:32:36.939Z,57.88
2018-02-20T04:35:02.884Z,50.72
2018-02-20T04:37:28.865Z,50.22
2018-02-20T04:39:54.792Z,50.90
2018-02-20T04:42:20.855Z,46.00
2018-02-20T04:44:46.788Z,45.85
2018-02-20T04:47:13.511Z,54.33
2018-02-20T04:49:39.483Z,46.95
2018-02-20T04:52:05.429Z,47.05
2018-02-20T04:54:31.389Z,44.33
2018-02-20T04:56:57.331Z,50.83
2018-02-20T04:59:23.417Z,49.58
2018-02-20T05:01:49.357Z,52.33
2018-02-20T05:04:16.071Z,49.88
2018-02-20T05:06:42.021Z,44.95
2018-02-20T05:09:07.972Z,44.90
2018-02-20T05:11:33.936Z,43.40
2018-02-20T05:13:59.896Z,43.60
2018-02-20T05:16:26.733Z,47.13
2018-02-20T05:18:52.704Z,46.10
2018-02-20T05:21:18.683Z,42.97
2018-02-20T05:23:45.356Z,49.30
2018-02-20T05:26:11.312Z,48.22
2018-02-20T05:28:37.256Z,45.75
2018-02-20T05:31:04.025Z,50.75
2018-02-20T05:33:30.104Z,46.97
2018-02-20T05:35:56.057Z,50.50
2018-02-20T05:38:22.759Z,45.55
2018-02-20T05:40:48.685Z,44.40
2018-02-20T05:43:14.647Z,41.60
2018-02-20T05:45:40.575Z,46.67
2018-02-20T05:48:06.687Z,41.80
2018-02-20T05:50:33.359Z,40.22
2018-02-20T05:52:59.305Z,51.40
2018-02-20T05:55:25.299Z,42.67
2018-02-20T05:57:51.269Z,42.78
2018-02-20T06:00:17.238Z,44.65
2018-02-20T06:02:43.186Z,48.00
2018-02-20T06:05:09.175Z,45.75
2018-02-20T06:07:35.132Z,48.42
2018-02-20T06:10:01.098Z,44.55
2018-02-20T06:12:27.777Z,42.60
2018-02-20T06:14:53.728Z,43.90
2018-02-20T06:17:19.728Z,50.63
2018-02-20T06:19:45.668Z,44.65
2018-02-20T06:22:11.760Z,39.80
2018-02-20T06:24:37.708Z,42.22
2018-02-20T06:27:03.700Z,44.45
2018-02-20T06:29:29.636Z,47.25
2018-02-20T06:31:55.753Z,43.83
2018-02-20T06:34:21.716Z,41.25
2018-02-20T06:36:47.803Z,38.65
2018-02-20T06:39:13.748Z,42.10
2018-02-20T06:41:39.701Z,46.28
2018-02-20T06:44:06.415Z,43.15
2018-02-20T06:46:32.352Z,41.67
2018-02-20T06:48:58.337Z,43.93
2018-02-20T06:51:25.205Z,42.08
2018-02-20T06:53:51.276Z,46.85
2018-02-20T06:56:17.212Z,40.08
2018-02-20T06:58:43.156Z,40.88
2018-02-20T07:01:09.128Z,41.80
2018-02-20T07:03:35.816Z,42.28
2018-02-20T07:06:01.793Z,37.33
2018-02-20T07:08:27.744Z,35.58
2018-02-20T07:10:53.840Z,43.03
2018-02-20T07:13:19.817Z,40.35
2018-02-20T07:15:45.774Z,41.37
2018-02-20T07:18:12.456Z,40.92
2018-02-20T07:20:38.404Z,39.65
2018-02-20T07:23:04.379Z,43.63
2018-02-20T07:25:30.327Z,36.60
2018-02-20T07:27:56.412Z,43.87
2018-02-20T07:30:22.359Z,44.97
2018-02-20T07:32:48.469Z,41.75
2018-02-20T07:35:14.413Z,40.75
2018-02-20T07:37:40.385Z,40.37
2018-02-20T07:40:07.092Z,39.53
2018-02-20T07:42:33.184Z,41.70
2018-02-20T07:44:59.141Z,43.78
2018-02-20T07:47:25.071Z,40.38
2018-02-20T07:49:51.040Z,40.30
2018-02-20T07:52:16.984Z,38.35
2018-02-20T07:54:42.920Z,41.00
2018-02-20T07:57:08.892Z,42.13
2018-02-20T07:59:35.581Z,52.25
2018-02-20T08:02:01.663Z,37.65
2018-02-20T08:04:27.624Z,44.88
2018-02-20T08:06:53.611Z,42.95
2018-02-20T08:09:19.548Z,42.90
2018-02-20T08:11:45.472Z,42.90
2018-02-20T08:14:11.461Z,47.13
2018-02-20T08:16:38.134Z,43.78
2018-02-20T08:19:04.196Z,42.53
2018-02-20T08:21:30.128Z,43.10
2018-02-20T08:23:56.093Z,38.57
2018-02-20T08:26:22.030Z,38.80
2018-02-20T08:28:48.072Z,38.25
2018-02-20T08:31:14.137Z,44.53
2018-02-20T08:33:40.821Z,45.35
2018-02-20T08:36:06.920Z,43.90
2018-02-20T08:38:32.881Z,52.17
2018-02-20T08:40:58.844Z,47.97
2018-02-20T08:43:24.779Z,42.78
2018-02-20T08:45:50.751Z,43.40
2018-02-20T08:48:16.693Z,48.72
2018-02-20T08:50:43.527Z,45.20
2018-02-20T08:53:09.468Z,49.15
2018-02-20T08:55:36.189Z,54.97
2018-02-20T08:58:02.135Z,50.28
2018-02-20T09:00:28.829Z,45.17
2018-02-20T09:02:54.801Z,48.72
2018-02-20T09:05:20.739Z,50.53
2018-02-20T09:07:46.812Z,49.38
2018-02-20T09:10:12.739Z,50.28
2018-02-20T09:12:38.708Z,60.63
2018-02-20T09:15:04.656Z,49.00
2018-02-20T09:17:30.616Z,54.33
2018-02-20T09:19:57.306Z,54.17
2018-02-20T09:22:23.407Z,55.53
2018-02-20T09:24:49.354Z,52.53
2018-02-20T09:27:15.285Z,44.35
2018-02-20T09:29:41.259Z,47.87
2018-02-20T09:32:08.100Z,45.00
2018-02-20T09:34:34.084Z,51.70
2018-02-20T09:37:00.030Z,46.47
2018-02-20T09:39:26.901Z,52.58
2018-02-20T09:41:52.831Z,53.87
2018-02-20T09:44:18.796Z,50.27
2018-02-20T09:46:44.763Z,54.65
2018-02-20T09:49:10.693Z,48.38
2018-02-20T09:51:37.404Z,51.57
2018-02-20T09:54:03.336Z,55.72
2018-02-20T09:56:30.155Z,52.10
2018-02-20T09:58:56.091Z,59.08
2018-02-20T10:01:22.802Z,54.28
2018-02-20T10:03:48.729Z,52.58
2018-02-20T10:06:14.701Z,46.10
2018-02-20T10:08:40.637Z,47.25
2018-02-20T10:11:06.572Z,47.17
2018-02-20T10:13:32.666Z,40.33
2018-02-20T10:15:58.612Z,47.70
2018-02-20T10:18:24.568Z,37.60
2018-02-20T10:20:50.525Z,38.08
2018-02-20T10:23:16.510Z,37.95
2018-02-20T10:25:42.445Z,43.95
2018-02-20T10:28:08.393Z,38.15
2018-02-20T10:30:34.464Z,37.45
2018-02-20T10:33:00.531Z,37.80
2018-02-20T10:35:27.233Z,37.25
2018-02-20T10:37:53.186Z,38.80
2018-02-20T10:40:19.859Z,42.30
2018-02-20T10:42:45.823Z,40.28
2018-02-20T10:45:11.763Z,41.22
2018-02-20T10:47:38.594Z,43.78
2018-02-20T10:50:04.564Z,36.65
2018-02-20T10:52:30.518Z,46.90
2018-02-20T10:54:56.492Z,44.95
2018-02-20T10:57:22.428Z,43.33
2018-02-20T10:59:48.400Z,36.97
2018-02-20T11:02:14.355Z,46.28
2018-02-20T11:04:40.448Z,40.55
2018-02-20T11:07:06.398Z,42.60
2018-02-20T11:09:32.375Z,37.50
2018-02-20T11:11:58.365Z,34.17
2018-02-20T11:14:24.332Z,41.47
2018-02-20T11:16:51.896Z,33.92
2018-02-20T11:19:16.463Z,37.90
2018-02-20T11:21:42.420Z,40.83
2018-02-20T11:24:09.113Z,35.78
2018-02-20T11:26:35.109Z,37.97
2018-02-20T11:29:01.049Z,39.53
2018-02-20T11:31:27.211Z,39.08
2018-02-20T11:33:53.140Z,40.80
2018-02-20T11:36:19.080Z,31.30
2018-02-20T11:38:45.233Z,35.03
2018-02-20T11:41:11.163Z,34.88
2018-02-20T11:43:37.116Z,43.17
2018-02-20T11:46:03.052Z,34.28
2018-02-20T11:48:29.024Z,36.23
2018-02-20T11:50:54.956Z,44.75
2018-02-20T11:53:21.070Z,34.70
2018-02-20T11:55:47.027Z,37.78
2018-02-20T11:58:12.961Z,41.35
2018-02-20T12:00:39.670Z,40.58
2018-02-20T12:03:05.608Z,35.45
2018-02-20T12:05:31.594Z,40.05
2018-02-20T12:07:57.535Z,42.15
2018-02-20T12:10:23.645Z,37.78
2018-02-20T12:12:49.604Z,35.67
2018-02-20T12:15:15.578Z,33.28
2018-02-20T12:17:42.300Z,42.33
2018-02-20T12:20:09.016Z,41.10
2018-02-20T12:22:35.006Z,40.30
2018-02-20T12:25:00.947Z,44.40
2018-02-20T12:27:27.041Z,37.13
2018-02-20T12:29:53.004Z,42.05
2018-02-20T12:32:18.984Z,45.42
2018-02-20T12:34:44.940Z,49.13
2018-02-20T12:37:10.935Z,53.10
2018-02-20T12:39:37.025Z,49.90
2018-02-20T12:42:02.977Z,50.03
2018-02-20T12:44:28.996Z,51.67
2018-02-20T12:46:54.952Z,48.50
2018-02-20T12:49:20.921Z,48.47
2018-02-20T12:51:46.872Z,49.13
2018-02-20T12:54:12.855Z,51.03
2018-02-20T12:56:38.821Z,47.90
2018-02-20T12:59:04.954Z,51.60
2018-02-20T13:01:30.892Z,53.38
2018-02-20T13:03:56.844Z,59.33
2018-02-20T13:06:22.822Z,44.88
2018-02-20T13:08:48.779Z,51.33
2018-02-20T13:11:14.807Z,56.40
2018-02-20T13:13:41.496Z,50.97
2018-02-20T13:16:07.437Z,47.72
2018-02-20T13:18:33.456Z,46.15
2018-02-20T13:20:59.414Z,50.53
2018-02-20T13:23:25.394Z,45.92
2018-02-20T13:25:51.355Z,48.90
2018-02-20T13:28:18.068Z,45.95
2018-02-20T13:30:44.027Z,54.53
2018-02-20T13:33:10.301Z,49.67
2018-02-20T13:35:36.244Z,41.80
2018-02-20T13:38:02.184Z,50.33
2018-02-20T13:40:28.163Z,49.85
2018-02-20T13:42:54.105Z,52.13
2018-02-20T13:45:20.109Z,38.72
2018-02-20T13:47:46.060Z,45.63
2018-02-20T13:50:12.185Z,45.63
2018-02-20T13:52:38.151Z,47.88
2018-02-20T13:55:04.096Z,49.45
2018-02-20T13:57:30.064Z,45.08
2018-02-20T13:59:56.759Z,49.03
2018-02-20T14:02:22.748Z,47.38
2018-02-20T14:04:48.705Z,49.47
2018-02-20T14:07:14.743Z,45.33
2018-02-20T14:09:40.699Z,50.15
2018-02-20T14:12:07.412Z,48.75
2018-02-20T14:14:33.360Z,43.72
2018-02-20T14:17:00.109Z,46.90
2018-02-20T14:19:26.070Z,38.30
2018-02-20T14:21:52.011Z,42.03
2018-02-20T14:24:18.022Z,40.88
2018-02-20T14:26:43.970Z,52.55
2018-02-20T14:29:09.961Z,43.60
2018-02-20T14:31:36.081Z,38.53
2018-02-20T14:34:02.064Z,39.10
2018-02-20T14:36:28.007Z,45.95
2018-02-20T14:38:54.128Z,38.00
2018-02-20T14:41:20.076Z,37.72
2018-02-20T14:43:46.048Z,38.10
2018-02-20T14:46:11.993Z,34.60
2018-02-20T14:48:37.980Z,35.60
2018-02-20T14:51:04.675Z,34.70
2018-02-20T14:53:30.757Z,38.33
2018-02-20T14:55:57.459Z,36.67
2018-02-20T14:58:23.408Z,35.67
2018-02-20T15:00:49.488Z,35.88
2018-02-20T15:03:15.462Z,33.70
2018-02-20T15:05:42.199Z,29.30
2018-02-20T15:08:08.132Z,33.80
2018-02-20T15:10:34.138Z,36.88
2018-02-20T15:13:00.828Z,36.63
2018-02-20T15:15:26.937Z,40.95
2018-02-20T15:17:53.631Z,36.97
2018-02-20T15:20:20.393Z,35.97
2018-02-20T15:22:47.079Z,35.63
2018-02-20T15:25:13.033Z,39.28
2018-02-20T15:27:39.135Z,36.90
2018-02-20T15:30:05.106Z,37.47
2018-02-20T15:32:31.076Z,33.90
2018-02-20T15:34:57.016Z,39.20
2018-02-20T15:37:22.973Z,38.85
2018-02-20T15:39:49.129Z,43.72
2018-02-20T15:42:15.109Z,42.47
2018-02-20T15:44:41.173Z,34.17
2018-02-20T15:47:07.120Z,35.33
2018-02-20T15:49:33.118Z,36.10
2018-02-20T15:51:59.049Z,38.35
2018-02-20T15:54:25.060Z,37.07
2018-02-20T15:56:51.009Z,40.28
2018-02-20T15:59:16.975Z,36.63
2018-02-20T16:01:43.713Z,34.40
2018-02-20T16:04:10.400Z,35.58
2018-02-20T16:06:36.509Z,42.60
2018-02-20T16:09:03.209Z,36.22
2018-02-20T16:11:29.931Z,35.55
2018-02-20T16:13:55.891Z,38.30
2018-02-20T16:16:21.906Z,35.60
2018-02-20T16:18:47.842Z,37.60
2018-02-20T16:21:13.848Z,41.40
2018-02-20T16:23:39.829Z,44.88
2018-02-20T16:26:05.763Z,43.38
2018-02-20T16:28:31.747Z,44.38
2018-02-20T16:30:57.737Z,37.55
2018-02-20T16:33:23.996Z,38.17
2018-02-20T16:35:49.944Z,41.78
2018-02-20T16:38:15.896Z,43.80
2018-02-20T16:40:42.593Z,41.13
2018-02-20T16:43:08.528Z,41.30
2018-02-20T16:45:34.489Z,43.97
2018-02-20T16:48:00.452Z,36.13
2018-02-20T16:50:26.553Z,37.47
2018-02-20T16:52:52.498Z,40.03
2018-02-20T16:55:18.449Z,41.88
2018-02-20T16:57:44.421Z,39.50
2018-02-20T17:00:10.372Z,36.80
2018-02-20T17:02:36.357Z,36.75
2018-02-20T17:05:02.292Z,38.92
2018-02-20T17:07:28.248Z,39.22
2018-02-20T17:09:54.341Z,45.30
2018-02-20T17:12:20.284Z,43.65
2018-02-20T17:14:46.320Z,41.37
2018-02-20T17:17:12.314Z,43.55
2018-02-20T17:19:38.264Z,47.03
2018-02-20T17:22:04.244Z,42.38
2018-02-20T17:24:30.196Z,40.67
2018-02-20T17:26:56.159Z,51.05
2018-02-20T17:29:22.900Z,41.55
2018-02-20T17:31:49.753Z,42.80
2018-02-20T17:34:15.773Z,43.38
2018-02-20T17:36:41.729Z,40.88
2018-02-20T17:39:07.831Z,37.28
2018-02-20T17:41:33.730Z,47.10
2018-02-20T17:44:00.419Z,43.67
2018-02-20T17:46:26.414Z,44.35
2018-02-20T17:48:52.399Z,40.33
2018-02-20T17:51:18.380Z,51.22
2018-02-20T17:53:44.330Z,46.60
2018-02-20T17:56:10.469Z,41.67
2018-02-20T17:58:36.402Z,43.40
2018-02-20T18:01:03.137Z,38.97
2018-02-20T18:03:29.138Z,39.63
2018-02-20T18:05:55.080Z,42.20
2018-02-20T18:08:21.077Z,40.03
2018-02-20T18:10:47.036Z,44.33
2018-02-20T18:13:23.825Z,47.97
2018-02-20T18:15:58.469Z,44.47
2018-02-20T18:18:36.893Z,43.70
2018-02-20T18:21:13.762Z,42.60
2018-02-20T18:23:40.594Z,40.28
2018-02-20T18:26:10.221Z,42.85
2018-02-20T18:28:36.880Z,48.28
2018-02-20T18:31:03.397Z,49.88
2018-02-20T18:33:29.351Z,44.05
2018-02-20T18:35:56.310Z,48.28
2018-02-20T18:38:23.013Z,45.53
2018-02-20T18:40:51.420Z,45.25
2018-02-20T18:43:18.065Z,44.15
2018-02-20T18:45:44.068Z,45.70
2018-02-20T18:48:11.030Z,47.90
2018-02-20T18:50:37.032Z,54.65
2018-02-20T18:53:06.444Z,44.17
2018-02-20T18:55:33.387Z,49.05
2018-02-20T18:58:09.131Z,54.95
2018-02-20T19:00:35.303Z,43.22
2018-02-20T19:03:01.320Z,55.40
2018-02-20T19:05:27.304Z,49.45
2018-02-20T19:07:53.275Z,50.38
2018-02-20T19:10:19.229Z,51.67
2018-02-20T19:12:45.219Z,52.17
2018-02-20T19:15:11.180Z,51.70
2018-02-20T19:17:37.157Z,53.45
2018-02-20T19:20:03.997Z,48.97
2018-02-20T19:22:30.711Z,50.60
2018-02-20T19:24:56.677Z,46.22
2018-02-20T19:27:22.631Z,52.28
2018-02-20T19:29:48.632Z,47.90
2018-02-20T19:32:14.755Z,54.33
2018-02-20T19:34:40.921Z,51.37
2018-02-20T19:37:06.896Z,50.58
2018-02-20T19:39:32.873Z,50.47
2018-02-20T19:41:58.870Z,53.22
2018-02-20T19:44:24.838Z,50.72
2018-02-20T19:46:51.576Z,52.25
2018-02-20T19:49:18.290Z,48.97
2018-02-20T19:51:44.441Z,53.75
2018-02-20T19:54:11.210Z,47.33
2018-02-20T19:56:37.175Z,58.75
2018-02-20T19:59:03.151Z,49.42
2018-02-20T20:01:29.122Z,51.80
2018-02-20T20:03:55.127Z,56.42
2018-02-20T20:06:21.113Z,52.58
2018-02-20T20:08:47.078Z,50.60
2018-02-20T20:11:13.168Z,54.33
2018-02-20T20:13:39.130Z,47.22
2018-02-20T20:16:05.139Z,48.90
2018-02-20T20:18:31.129Z,55.15
2018-02-20T20:20:57.153Z,47.97
2018-02-20T20:23:23.112Z,42.05
2018-02-20T20:25:49.139Z,52.25
2018-02-20T20:28:15.139Z,53.35
2018-02-20T20:30:41.097Z,55.40
2018-02-20T20:33:07.257Z,49.90
2018-02-20T20:35:33.218Z,54.70
2018-02-20T20:37:59.205Z,50.88
2018-02-20T20:40:25.183Z,54.75
2018-02-20T20:42:51.299Z,47.62
2018-02-20T20:45:17.261Z,60.22
2018-02-20T20:47:44.022Z,53.08
2018-02-20T20:50:10.009Z,54.47
2018-02-20T20:52:35.987Z,54.03
2018-02-20T20:55:01.985Z,49.63
2018-02-20T20:57:28.002Z,50.35
2018-02-20T20:59:54.131Z,56.63
2018-02-20T21:02:20.101Z,56.95
2018-02-20T21:04:46.116Z,50.85
2018-02-20T21:07:12.094Z,55.67
2018-02-20T21:09:38.066Z,53.53
2018-02-20T21:12:04.046Z,53.58
2018-02-20T21:14:30.153Z,55.47
2018-02-20T21:16:56.893Z,53.38
2018-02-20T21:19:23.618Z,56.30
2018-02-20T21:21:49.626Z,53.60
2018-02-20T21:24:15.593Z,56.45
2018-02-20T21:26:42.289Z,53.05
2018-02-20T21:29:08.299Z,48.83
2018-02-20T21:31:34.582Z,55.67
2018-02-20T21:34:00.580Z,57.47
2018-02-20T21:36:26.562Z,58.28
2018-02-20T21:38:52.584Z,58.47
2018-02-20T21:41:18.545Z,58.25
2018-02-20T21:43:44.532Z,53.22
2018-02-20T21:46:10.471Z,52.90
2018-02-20T21:48:36.573Z,57.85
2018-02-20T21:51:02.583Z,54.63
2018-02-20T21:53:28.588Z,53.80
2018-02-20T21:55:55.284Z,57.55
2018-02-20T21:58:21.310Z,53.35
2018-02-20T22:00:47.296Z,50.25
2018-02-20T22:03:13.296Z,54.50
2018-02-20T22:05:40.009Z,54.80
2018-02-20T22:08:05.968Z,58.00
2018-02-20T22:10:32.067Z,51.40
2018-02-20T22:12:58.768Z,50.83
2018-02-20T22:15:24.747Z,52.15
2018-02-20T22:17:50.705Z,56.45
2018-02-20T22:20:16.833Z,51.92
2018-02-20T22:22:42.787Z,56.60
2018-02-20T22:25:08.792Z,48.80
2018-02-20T22:27:34.748Z,48.65
2018-02-20T22:30:01.494Z,56.75
2018-02-20T22:32:28.208Z,48.35
2018-02-20T22:34:54.149Z,56.55
2018-02-20T22:37:20.868Z,57.28
2018-02-20T22:39:46.981Z,51.67
2018-02-20T22:42:13.066Z,54.58
2018-02-20T22:44:39.033Z,56.17
2018-02-20T22:47:05.040Z,54.10
2018-02-20T22:49:30.984Z,52.00
2018-02-20T22:51:56.993Z,55.60
2018-02-20T22:54:22.923Z,50.38
2018-02-20T22:56:48.863Z,52.00
2018-02-20T22:59:14.942Z,49.72
2018-02-20T23:01:40.868Z,56.15
2018-02-20T23:04:06.840Z,54.67
2018-02-20T23:06:33.528Z,55.35
2018-02-20T23:08:59.629Z,53.70
2018-02-20T23:11:25.583Z,52.30
2018-02-20T23:13:51.548Z,46.17
2018-02-20T23:16:18.255Z,47.67
2018-02-20T23:18:44.211Z,52.45
2018-02-20T23:21:10.945Z,49.10
2018-02-20T23:23:37.627Z,58.60
2018-02-20T23:26:03.758Z,48.40
2018-02-20T23:28:29.718Z,51.08
2018-02-20T23:30:55.656Z,52.65
2018-02-20T23:33:21.894Z,49.65
2018-02-20T23:35:47.872Z,52.38
2018-02-20T23:38:13.855Z,50.22
2018-02-20T23:40:39.807Z,55.75
2018-02-20T23:43:05.765Z,49.30
2018-02-20T23:45:31.730Z,50.28
2018-02-20T23:47:57.835Z,51.05
2018-02-20T23:50:23.780Z,51.60
2018-02-20T23:52:49.757Z,52.72
2018-02-20T23:55:15.689Z,52.58
2018-02-20T23:57:41.696Z,51.50
